Time;durP1;ratioP1;P1;durP2;ratioP2;P2;SDS_P1;SDS_P2;PMS_P1;PMS_P2;Temp;Humidity;BMP_temperature;BMP_pressure;BME280_temperature;BME280_humidity;BME280_pressure;Samples;Min_cycle;Max_cycle;Signal;HPM_P1;HPM_P2
2023/07/24 00:02:24;;;;;;;21.30;10.73;;;;;;;-143.21;59.80;71431.72;5111100;27;20211;-78
2023/07/24 00:04:51;;;;;;;15.43;9.98;;;;;;;-143.21;59.84;71431.72;5121697;27;20207;-78
2023/07/24 00:07:18;;;;;;;16.90;9.32;;;;;;;-143.21;59.37;71425.78;5116924;27;20222;-78
2023/07/24 00:09:45;;;;;;;18.08;10.63;;;;;;;-143.21;59.53;71435.69;5113901;28;20264;-78
2023/07/24 00:12:12;;;;;;;15.50;10.35;;;;;;;-143.21;59.91;71447.59;5111646;28;20207;-79
2023/07/24 00:14:38;;;;;;;18.88;10.40;;;;;;;-143.21;60.31;71451.56;5111449;28;20206;-80
2023/07/24 00:17:06;;;;;;;17.10;9.88;;;;;;;-143.21;60.44;71459.47;5118316;28;20191;-80
2023/07/24 00:19:34;;;;;;;19.52;9.95;;;;;;;-143.21;61.02;71483.28;5118093;28;20623;-80
2023/07/24 00:22:01;;;;;;;16.35;10.70;;;;;;;-143.21;60.92;71487.25;5115991;28;20219;-79
2023/07/24 00:24:28;;;;;;;17.95;10.23;;;;;;;-143.21;61.05;71489.22;5111408;28;20219;-79
2023/07/24 00:26:54;;;;;;;13.45;9.43;;;;;;;-143.21;61.14;71481.28;5117111;28;20218;-79
2023/07/24 00:29:21;;;;;;;14.30;9.82;;;;;;;-143.21;61.23;71475.34;5112274;28;20211;-79
2023/07/24 00:31:48;;;;;;;16.08;9.57;;;;;;;-143.21;61.10;71467.41;5115530;28;20219;-79
2023/07/24 00:34:15;;;;;;;16.17;9.55;;;;;;;-143.21;60.77;71455.53;5108982;28;20200;-79
2023/07/24 00:36:43;;;;;;;14.48;9.50;;;;;;;-143.21;60.63;71453.53;5117822;28;20203;-79
2023/07/24 00:39:10;;;;;;;14.65;9.10;;;;;;;-143.21;60.61;71449.56;5115139;28;20204;-79
2023/07/24 00:41:36;;;;;;;14.40;9.38;;;;;;;-143.21;60.24;71435.69;5114104;28;20203;-79
2023/07/24 00:44:03;;;;;;;15.43;9.40;;;;;;;-143.21;60.31;71439.66;5108362;28;20204;-79
2023/07/24 00:46:32;;;;;;;14.63;10.15;;;;;;;-143.21;60.39;71439.66;5110631;28;20199;-79
2023/07/24 00:48:59;;;;;;;13.27;8.93;;;;;;;-143.21;60.63;71453.53;5114191;28;20208;-79
2023/07/24 00:51:27;;;;;;;14.07;8.70;;;;;;;-143.21;60.39;71461.47;5112726;28;20231;-79
2023/07/24 00:53:56;;;;;;;14.68;9.13;;;;;;;-143.21;60.89;71471.38;5106443;28;20204;-79
2023/07/24 00:56:24;;;;;;;13.90;9.55;;;;;;;-143.21;60.74;71479.31;5108362;28;20212;-79
2023/07/24 00:58:51;;;;;;;14.48;9.75;;;;;;;-143.21;61.38;71491.22;5118933;28;20207;-78
2023/07/24 01:01:18;;;;;;;13.98;9.45;;;;;;;-143.21;60.83;71491.22;5112128;27;20231;-78
2023/07/24 01:03:45;;;;;;;13.43;9.55;;;;;;;-143.21;61.12;71485.25;5108759;28;20212;-79
2023/07/24 01:06:11;;;;;;;14.38;9.27;;;;;;;-143.21;61.25;71485.25;5110614;27;20662;-79
2023/07/24 01:08:38;;;;;;;16.25;10.68;;;;;;;-143.21;61.17;71485.25;5111567;27;20203;-79
2023/07/24 01:11:13;;;;;;;12.23;8.75;;;;;;;-143.21;60.39;71487.25;5119944;27;20276;-79
2023/07/24 01:13:45;;;;;;;11.68;8.63;;;;;;;-143.21;60.31;71483.28;5124107;27;20255;-79
2023/07/24 01:16:15;;;;;;;13.48;8.90;;;;;;;-143.21;60.39;71491.22;5115720;27;20659;-79
2023/07/24 01:18:45;;;;;;;13.40;9.10;;;;;;;-143.21;60.57;71491.22;5111393;27;20211;-79
2023/07/24 01:21:15;;;;;;;13.50;8.68;;;;;;;-143.21;60.45;71481.28;5118914;27;20239;-79
2023/07/24 01:24:00;;;;;;;15.48;8.82;;;;;;;-143.21;60.47;71481.28;5115279;27;20706;-79
2023/07/24 01:26:28;;;;;;;12.40;8.77;;;;;;;-143.21;60.31;71481.28;5111077;27;20389;-79
2023/07/24 01:28:55;;;;;;;13.60;8.70;;;;;;;-143.21;60.29;71483.28;5111744;27;20231;-81
2023/07/24 01:31:22;;;;;;;14.13;8.68;;;;;;;-143.21;60.33;71477.34;5116196;27;20199;-81
2023/07/24 01:33:49;;;;;;;13.18;9.25;;;;;;;-143.21;61.09;71487.25;5112257;27;20212;-82
2023/07/24 01:36:16;;;;;;;13.50;8.80;;;;;;;-143.21;61.24;71495.19;5111929;27;20203;-81
2023/07/24 01:38:43;;;;;;;13.43;8.98;;;;;;;-143.21;61.29;71518.97;5110226;27;20208;-81
2023/07/24 01:41:10;;;;;;;13.50;9.48;;;;;;;-143.21;61.47;71536.81;5111153;27;20239;-81
2023/07/24 01:43:39;;;;;;;15.57;9.75;;;;;;;-143.21;61.80;71540.78;5117463;27;20856;-81
2023/07/24 01:46:05;;;;;;;14.85;9.27;;;;;;;-143.21;61.89;71544.75;5114183;27;20203;-81
2023/07/24 01:48:32;;;;;;;16.52;9.30;;;;;;;-143.21;61.69;71534.81;5117674;27;20704;-80
2023/07/24 01:50:59;;;;;;;13.60;9.07;;;;;;;-143.21;61.59;71520.94;5110614;27;20232;-80
2023/07/24 01:53:26;;;;;;;17.05;9.27;;;;;;;-143.21;61.42;71520.94;5112609;27;20208;-79
2023/07/24 01:55:52;;;;;;;14.05;9.50;;;;;;;-143.21;61.29;71536.81;5113548;27;20212;-79
2023/07/24 01:58:19;;;;;;;13.10;9.15;;;;;;;-143.21;61.51;71526.91;5114861;27;20220;-79
2023/07/24 02:00:48;;;;;;;16.50;9.18;;;;;;;-143.21;61.07;71526.91;5113557;27;20308;-79
2023/07/24 02:03:15;;;;;;;12.65;8.77;;;;;;;-143.21;60.72;71522.94;5117076;27;20211;-80
2023/07/24 02:05:42;;;;;;;12.60;9.32;;;;;;;-143.21;61.04;71522.94;5114986;27;20680;-79
2023/07/24 02:08:08;;;;;;;12.38;8.75;;;;;;;-143.21;61.16;71516.97;5113116;27;20272;-81
2023/07/24 02:10:38;;;;;;;14.80;8.85;;;;;;;-143.21;61.18;71526.91;5114897;27;20204;-79
2023/07/24 02:13:07;;;;;;;15.15;9.07;;;;;;;-143.21;61.40;71534.81;5120233;27;20294;-79
2023/07/24 02:15:34;;;;;;;17.75;9.35;;;;;;;-143.21;61.52;71532.84;5112706;27;20207;-79
2023/07/24 02:18:02;;;;;;;13.38;8.82;;;;;;;-143.21;61.34;71534.81;5111874;27;20215;-80
2023/07/24 02:20:29;;;;;;;15.05;8.73;;;;;;;-143.21;61.57;71532.84;5109309;27;20613;-81
2023/07/24 02:22:56;;;;;;;12.80;9.02;;;;;;;-143.21;61.70;71544.75;5110575;27;20211;-82
2023/07/24 02:25:22;;;;;;;13.32;8.93;;;;;;;-143.21;61.79;71544.75;5113825;27;20647;-81
2023/07/24 02:27:49;;;;;;;11.48;8.48;;;;;;;-143.21;61.23;71536.81;5112994;27;20211;-82
2023/07/24 02:30:16;;;;;;;17.55;8.73;;;;;;;-143.21;61.29;71530.88;5109216;27;20204;-82
2023/07/24 02:32:43;;;;;;;13.90;8.23;;;;;;;-143.21;61.43;71530.88;5109585;27;20207;-81
2023/07/24 02:35:11;;;;;;;12.43;9.00;;;;;;;-143.21;61.25;71526.91;5110356;27;20204;-81
2023/07/24 02:37:38;;;;;;;14.18;8.98;;;;;;;-143.21;61.31;71530.88;5115946;27;20712;-82
2023/07/24 02:40:06;;;;;;;18.17;9.20;;;;;;;-143.21;61.36;71532.84;5110682;28;20223;-83
2023/07/24 02:42:32;;;;;;;13.30;8.85;;;;;;;-143.21;61.20;71546.72;5112007;27;20260;-83
2023/07/24 02:44:59;;;;;;;15.73;9.10;;;;;;;-143.21;61.65;71548.72;5109197;28;20671;-82
2023/07/24 02:47:26;;;;;;;14.70;8.98;;;;;;;-143.21;61.63;71560.59;5106665;27;20212;-82
2023/07/24 02:49:53;;;;;;;15.70;8.38;;;;;;;-143.21;61.81;71560.59;5108786;28;20200;-83
2023/07/24 02:52:21;;;;;;;16.92;9.25;;;;;;;-143.21;61.94;71556.63;5108659;27;21046;-83
2023/07/24 02:54:48;;;;;;;12.60;9.20;;;;;;;-143.21;62.22;71562.59;5109699;28;20241;-83
2023/07/24 02:57:14;;;;;;;13.82;9.13;;;;;;;-143.21;62.24;71566.56;5110675;27;20219;-83
2023/07/24 02:59:41;;;;;;;13.00;8.77;;;;;;;-143.21;62.24;71570.53;5108434;27;20671;-82
2023/07/24 03:02:08;;;;;;;14.68;8.77;;;;;;;-143.21;62.28;71572.50;5108858;28;20253;-81
2023/07/24 03:04:35;;;;;;;13.18;8.68;;;;;;;-143.21;62.39;71566.56;5109759;27;20215;-81
2023/07/24 03:07:02;;;;;;;12.77;8.40;;;;;;;-143.21;62.23;71564.56;5108858;27;20203;-81
2023/07/24 03:09:30;;;;;;;14.80;9.13;;;;;;;-143.21;62.42;71572.50;5109787;27;20200;-81
2023/07/24 03:11:57;;;;;;;12.73;8.80;;;;;;;-143.21;62.31;71568.53;5112767;27;20207;-81
2023/07/24 03:14:23;;;;;;;14.15;9.38;;;;;;;-143.21;61.86;71558.63;5107924;27;20231;-81
2023/07/24 03:16:50;;;;;;;11.00;7.80;;;;;;;-143.21;61.69;71540.78;5108373;27;20268;-81
2023/07/24 03:19:19;;;;;;;15.05;9.35;;;;;;;-143.21;61.35;71540.78;5108315;27;20207;-81
2023/07/24 03:21:46;;;;;;;11.30;8.45;;;;;;;-143.21;61.46;71548.72;5115001;27;20301;-82
2023/07/24 03:24:13;;;;;;;12.65;8.45;;;;;;;-143.21;61.49;71566.56;5109076;27;20211;-82
2023/07/24 03:26:41;;;;;;;12.35;8.30;;;;;;;-143.21;61.70;71584.41;5112014;27;20206;-81
2023/07/24 03:29:08;;;;;;;14.65;9.43;;;;;;;-143.21;62.06;71596.28;5107076;27;20218;-82
2023/07/24 03:31:35;;;;;;;11.73;8.57;;;;;;;-143.21;62.59;71612.16;5111083;27;20203;-82
2023/07/24 03:34:01;;;;;;;16.63;8.57;;;;;;;-143.21;62.70;71614.13;5115932;27;20911;-82
2023/07/24 03:36:28;;;;;;;13.93;7.75;;;;;;;-143.21;62.68;71614.13;5107319;27;20655;-82
2023/07/24 03:38:55;;;;;;;13.57;8.88;;;;;;;-143.21;62.73;71620.09;5112411;27;20207;-83
2023/07/24 03:41:22;;;;;;;11.45;8.48;;;;;;;-143.21;62.89;71624.06;5108951;27;20242;-81
2023/07/24 03:43:50;;;;;;;11.07;7.93;;;;;;;-143.21;62.89;71628.00;5108879;27;20624;-82
2023/07/24 03:46:17;;;;;;;12.75;8.85;;;;;;;-143.21;63.25;71633.97;5107316;27;20215;-81
2023/07/24 03:48:43;;;;;;;12.93;8.45;;;;;;;-143.21;63.19;71628.00;5111256;27;20218;-82
2023/07/24 03:51:10;;;;;;;16.50;9.77;;;;;;;-143.21;63.01;71628.00;5107296;27;21167;-81
2023/07/24 03:53:37;;;;;;;16.58;8.45;;;;;;;-143.21;63.04;71630.00;5112423;27;20687;-81
2023/07/24 03:56:04;;;;;;;14.27;9.73;;;;;;;-143.21;62.75;71620.09;5109109;27;20689;-81
2023/07/24 03:58:31;;;;;;;17.58;8.50;;;;;;;-143.21;63.04;71628.00;5107098;28;20214;-81
2023/07/24 04:00:59;;;;;;;13.50;9.45;;;;;;;-143.21;63.36;71643.88;5108862;27;20224;-81
2023/07/24 04:03:27;;;;;;;12.35;8.82;;;;;;;-143.21;63.59;71643.88;5108146;28;20705;-80
2023/07/24 04:05:53;;;;;;;12.13;8.38;;;;;;;-143.21;63.94;71655.78;5110801;27;20199;-81
2023/07/24 04:08:20;;;;;;;12.68;9.02;;;;;;;-143.21;64.22;71657.75;5113141;27;20801;-82
2023/07/24 04:10:47;;;;;;;13.02;9.35;;;;;;;-143.21;64.12;71655.78;5108465;28;20713;-81
2023/07/24 04:13:14;;;;;;;12.48;9.10;;;;;;;-143.21;64.26;71651.81;5113121;28;21126;-81
2023/07/24 04:15:41;;;;;;;11.90;8.65;;;;;;;-143.21;64.38;71659.75;5108154;28;20693;-81
2023/07/24 04:18:09;;;;;;;12.57;8.95;;;;;;;-143.21;64.41;71657.75;5107366;28;20196;-81
2023/07/24 04:20:36;;;;;;;16.88;9.10;;;;;;;-143.21;64.01;71667.66;5107344;28;20277;-81
2023/07/24 04:23:02;;;;;;;16.75;9.43;;;;;;;-143.21;64.37;71673.63;5105910;28;20261;-82
2023/07/24 04:25:29;;;;;;;12.90;9.20;;;;;;;-143.21;64.54;71673.63;5110616;28;20226;-80
2023/07/24 04:27:56;;;;;;;17.00;9.20;;;;;;;-143.21;65.40;71701.38;5108517;28;21366;-79
2023/07/24 04:30:23;;;;;;;14.32;9.75;;;;;;;-143.21;65.15;71707.31;5105663;28;20291;-80
2023/07/24 04:32:50;;;;;;;14.15;9.45;;;;;;;-143.21;65.92;71725.16;5110135;28;20237;-80
2023/07/24 04:35:18;;;;;;;13.30;9.25;;;;;;;-143.21;65.93;71707.31;5109895;28;20212;-80
2023/07/24 04:37:45;;;;;;;16.42;10.38;;;;;;;-143.21;65.66;71693.44;5108282;28;20700;-80
2023/07/24 04:40:13;;;;;;;17.05;9.73;;;;;;;-143.21;65.36;71689.47;5113923;28;20199;-79
2023/07/24 04:42:40;;;;;;;17.73;10.38;;;;;;;-143.21;65.35;71681.56;5108588;27;20212;-79
2023/07/24 04:45:08;;;;;;;17.88;9.55;;;;;;;-143.21;64.94;71665.69;5109562;27;20200;-79
2023/07/24 04:47:36;;;;;;;18.23;9.70;;;;;;;-143.21;64.88;71657.75;5112190;27;20646;-78
2023/07/24 04:50:09;;;;;;;18.35;10.57;;;;;;;-143.21;64.67;71649.81;5116681;27;20204;-81
2023/07/24 04:52:38;;;;;;;17.35;10.30;;;;;;;-143.21;64.32;71637.94;5112463;27;20706;-80
2023/07/24 04:55:05;;;;;;;19.85;9.95;;;;;;;-143.21;63.91;71624.06;5113530;27;20253;-80
2023/07/24 04:57:32;;;;;;;21.05;11.45;;;;;;;-143.21;64.08;71620.09;5120138;27;20203;-79
2023/07/24 04:59:59;;;;;;;22.40;10.98;;;;;;;-143.21;63.77;71602.25;5109220;27;20742;-87
2023/07/24 05:02:26;;;;;;;16.05;10.65;;;;;;;-143.21;63.74;71596.28;5113708;27;20224;-81
2023/07/24 05:04:52;;;;;;;18.17;10.73;;;;;;;-143.21;63.56;71594.31;5106485;27;20199;-81
2023/07/24 05:07:19;;;;;;;21.70;10.63;;;;;;;-143.21;63.11;71586.38;5114188;27;20203;-80
2023/07/24 05:09:47;;;;;;;18.52;10.98;;;;;;;-143.21;62.81;71570.53;5115065;27;20208;-81
2023/07/24 05:12:14;;;;;;;16.48;11.48;;;;;;;-143.21;62.57;71558.63;5109260;27;20208;-80
2023/07/24 05:14:41;;;;;;;20.10;10.25;;;;;;;-143.21;62.44;71556.63;5114807;27;20737;-80
2023/07/24 05:17:08;;;;;;;19.27;10.07;;;;;;;-143.21;62.60;71560.59;5113143;27;20196;-80
2023/07/24 05:19:35;;;;;;;18.90;10.98;;;;;;;-143.21;62.80;71570.53;5108547;27;20207;-80
2023/07/24 05:22:01;;;;;;;15.48;10.25;;;;;;;-143.21;63.09;71578.44;5112746;27;20232;-80
2023/07/24 05:24:28;;;;;;;14.80;10.77;;;;;;;-143.21;63.22;71580.44;5114233;27;20207;-80
2023/07/24 05:26:56;;;;;;;16.00;10.18;;;;;;;-143.21;63.04;71572.50;5114193;27;20212;-80
2023/07/24 05:29:23;;;;;;;19.52;9.98;;;;;;;-143.21;63.20;71566.56;5111614;27;20211;-80
2023/07/24 05:31:50;;;;;;;22.02;11.40;;;;;;;-143.21;62.88;71554.66;5116962;27;20203;-80
2023/07/24 05:34:17;;;;;;;20.35;10.70;;;;;;;-143.21;62.48;71538.78;5120173;27;20597;-80
2023/07/24 05:36:43;;;;;;;19.30;11.48;;;;;;;-143.21;62.00;71534.81;5108244;27;20288;-80
2023/07/24 05:39:10;;;;;;;17.80;10.85;;;;;;;-143.21;61.96;71526.91;5107796;27;20223;-79
2023/07/24 05:41:37;;;;;;;20.70;11.32;;;;;;;-143.21;61.84;71511.03;5108413;27;20234;-80
2023/07/24 05:44:05;;;;;;;19.58;11.70;;;;;;;-143.21;61.19;71495.19;5111640;27;20215;-79
2023/07/24 05:46:32;;;;;;;23.15;11.82;;;;;;;-143.21;60.83;71473.38;5117921;27;20199;-80
2023/07/24 05:49:00;;;;;;;19.05;11.18;;;;;;;-143.21;60.44;71459.47;5110936;27;20196;-80
2023/07/24 05:51:27;;;;;;;23.27;10.68;;;;;;;-143.21;60.34;71455.53;5109448;27;20255;-80
2023/07/24 05:53:54;;;;;;;17.75;11.55;;;;;;;-143.21;59.82;71453.53;5111637;27;20204;-80
2023/07/24 05:56:22;;;;;;;21.52;11.35;;;;;;;-143.21;58.04;71457.50;5108514;27;20222;-80
2023/07/24 05:58:48;;;;;;;19.75;12.02;;;;;;;-143.21;58.16;71461.47;5107800;27;20674;-80
2023/07/24 06:01:17;;;;;;;17.98;11.10;;;;;;;-143.21;58.61;71471.38;5107238;27;20675;-81
2023/07/24 06:03:43;;;;;;;18.83;11.30;;;;;;;-143.21;58.53;71461.47;5109160;27;20923;-80
2023/07/24 06:06:10;;;;;;;16.75;11.50;;;;;;;-143.21;58.94;71451.56;5110859;27;20968;-80
2023/07/24 06:08:37;;;;;;;17.67;11.27;;;;;;;-143.21;59.04;71447.59;5109733;27;20208;-80
2023/07/24 06:11:04;;;;;;;21.80;11.13;;;;;;;-143.21;58.86;71433.72;5116335;27;20188;-81
2023/07/24 06:13:31;;;;;;;19.42;11.55;;;;;;;-143.21;59.08;71433.72;5108649;27;20226;-82
2023/07/24 06:15:58;;;;;;;16.92;11.38;;;;;;;-143.21;58.37;71433.72;5107274;27;20212;-82
2023/07/24 06:18:26;;;;;;;19.88;11.40;;;;;;;-143.21;58.68;71421.81;5106679;28;20564;-81
2023/07/24 06:20:54;;;;;;;22.77;12.60;;;;;;;-143.21;58.95;71411.91;5107833;27;20199;-81
2023/07/24 06:23:21;;;;;;;21.17;12.45;;;;;;;-143.21;59.10;71398.03;5111846;27;20200;-81
2023/07/24 06:25:48;;;;;;;23.27;11.68;;;;;;;-143.21;58.01;71350.44;5108068;27;20208;-83
2023/07/24 06:28:14;;;;;;;23.45;12.77;;;;;;;-143.21;57.97;71344.50;5105499;27;20208;-81
2023/07/24 06:30:41;;;;;;;22.05;12.80;;;;;;;-143.21;57.46;71326.66;5108922;27;20693;-83
2023/07/24 06:33:08;;;;;;;19.02;12.13;;;;;;;-143.21;57.38;71326.66;5112561;27;20195;-83
2023/07/24 06:35:36;;;;;;;18.92;11.93;;;;;;;-143.21;57.65;71324.66;5110162;27;20564;-81
2023/07/24 06:38:03;;;;;;;25.05;12.60;;;;;;;-143.21;57.84;71334.59;5105750;28;20212;-81
2023/07/24 06:40:30;;;;;;;21.38;11.68;;;;;;;-143.21;57.65;71328.63;5107787;28;20670;-82
2023/07/24 06:42:57;;;;;;;22.27;11.73;;;;;;;-143.21;57.49;71328.63;5107931;27;20219;-82
2023/07/24 06:45:24;;;;;;;28.10;12.15;;;;;;;-143.21;57.51;71322.69;5104802;27;20208;-81
2023/07/24 06:47:50;;;;;;;21.83;12.07;;;;;;;-143.21;57.36;71306.81;5108625;27;20200;-81
2023/07/24 06:50:17;;;;;;;20.13;11.18;;;;;;;-143.21;57.33;71296.91;5109528;27;20797;-80
2023/07/24 06:52:46;;;;;;;18.88;11.18;;;;;;;-143.21;56.34;71288.97;5108685;27;20207;-81
2023/07/24 06:55:12;;;;;;;19.38;11.02;;;;;;;-143.21;56.35;71285.03;5111528;27;20204;-81
2023/07/24 06:57:39;;;;;;;23.30;12.30;;;;;;;-143.21;56.22;71277.09;5111864;27;20322;-81
2023/07/24 07:00:11;;;;;;;23.98;12.00;;;;;;;-143.21;56.42;71275.09;5108278;27;20200;-82
2023/07/24 07:02:38;;;;;;;24.35;11.65;;;;;;;-143.21;56.35;71265.19;5108168;28;20291;-81
2023/07/24 07:05:05;;;;;;;23.42;11.48;;;;;;;-143.21;55.95;71251.31;5112311;27;20203;-81
2023/07/24 07:07:32;;;;;;;25.38;11.80;;;;;;;-143.21;55.39;71239.41;5116407;27;20917;-81
2023/07/24 07:10:00;;;;;;;19.35;11.00;;;;;;;-143.21;55.98;71229.50;5108971;27;20204;-81
2023/07/24 07:12:27;;;;;;;19.65;11.70;;;;;;;-143.21;55.87;71237.44;5111188;27;20238;-82
2023/07/24 07:14:54;;;;;;;24.02;11.23;;;;;;;-143.21;55.95;71231.50;5109984;27;20214;-81
2023/07/24 07:17:21;;;;;;;18.15;10.93;;;;;;;-143.21;55.09;71221.56;5107605;28;20669;-81
2023/07/24 07:19:48;;;;;;;18.33;10.85;;;;;;;-143.21;54.83;71207.69;5107837;27;20203;-82
2023/07/24 07:22:15;;;;;;;20.92;11.60;;;;;;;-143.21;54.74;71203.72;5107455;27;20243;-81
2023/07/24 07:24:43;;;;;;;24.02;11.45;;;;;;;-143.21;55.04;71203.72;5109871;27;20283;-82
2023/07/24 07:27:11;;;;;;;17.65;11.18;;;;;;;-143.21;54.75;71201.75;5107530;27;20257;-81
2023/07/24 07:29:38;;;;;;;20.77;10.73;;;;;;;-143.21;54.59;71193.81;5106339;28;20196;-81
2023/07/24 07:32:05;;;;;;;17.67;10.85;;;;;;;-143.21;54.12;71185.88;5106335;27;20318;-83
2023/07/24 07:34:32;;;;;;;18.92;11.20;;;;;;;-143.21;53.61;71175.97;5109825;27;20225;-82
2023/07/24 07:36:59;;;;;;;18.67;10.40;;;;;;;-143.21;53.51;71158.13;5109665;27;20200;-80
2023/07/24 07:39:26;;;;;;;18.38;10.40;;;;;;;-143.21;53.51;71142.28;5111392;27;20195;-80
2023/07/24 07:41:53;;;;;;;21.33;10.13;;;;;;;-143.21;53.22;71122.44;5105448;27;20224;-79
2023/07/24 07:44:21;;;;;;;21.15;10.35;;;;;;;-143.21;52.51;71108.56;5110350;27;20200;-79
2023/07/24 07:46:48;;;;;;;21.88;10.77;;;;;;;-143.21;51.37;71098.66;5110127;28;20200;-78
2023/07/24 07:49:15;;;;;;;20.45;10.38;;;;;;;-143.21;51.16;71094.69;5110230;28;20196;-78
2023/07/24 07:51:41;;;;;;;17.98;10.32;;;;;;;-143.21;50.75;71080.81;5109645;28;20622;-79
2023/07/24 07:54:08;;;;;;;21.08;10.40;;;;;;;-143.21;50.94;71072.88;5109806;28;20192;-79
2023/07/24 07:56:35;;;;;;;21.17;11.13;;;;;;;-143.21;50.33;71064.97;5109824;28;20200;-79
2023/07/24 07:59:02;;;;;;;19.23;10.65;;;;;;;-143.21;49.76;71043.16;5093063;28;20216;-79
2023/07/24 08:01:30;;;;;;;16.30;10.60;;;;;;;-143.21;48.65;71035.22;5109282;28;20667;-78
2023/07/24 08:03:57;;;;;;;19.33;11.20;;;;;;;-143.21;47.53;71025.31;5109606;28;20663;-79
2023/07/24 08:06:24;;;;;;;17.60;10.63;;;;;;;-143.21;47.12;71013.41;5109489;28;20283;-79
2023/07/24 08:08:51;;;;;;;21.00;11.57;;;;;;;-143.21;47.38;70997.56;5109310;28;20188;-79
2023/07/24 08:11:18;;;;;;;21.90;10.85;;;;;;;-143.21;47.15;70977.72;5109938;28;20199;-79
2023/07/24 08:13:44;;;;;;;21.95;10.48;;;;;;;-143.21;45.85;70951.97;5109871;28;20184;-79
2023/07/24 08:16:18;;;;;;;15.73;10.30;;;;;;;-143.21;45.98;70948.00;5113230;28;20199;-79
2023/07/24 08:18:47;;;;;;;16.77;10.43;;;;;;;-143.21;45.81;70936.09;5109854;28;20227;-78
2023/07/24 08:21:14;;;;;;;21.35;10.85;;;;;;;-143.21;46.29;70916.28;5123407;28;20634;-78
2023/07/24 08:23:41;;;;;;;18.83;10.43;;;;;;;-143.21;45.99;70898.44;5130022;28;20626;-78
2023/07/24 08:26:08;;;;;;;24.30;11.93;;;;;;;-143.21;45.45;70894.47;5130100;27;20191;-78
2023/07/24 08:28:35;;;;;;;18.02;9.85;;;;;;;-143.21;45.05;70880.59;5130147;28;20195;-78
2023/07/24 08:31:02;;;;;;;18.42;10.68;;;;;;;-143.21;44.86;70870.69;5115314;28;20203;-79
2023/07/24 08:33:29;;;;;;;19.63;10.80;;;;;;;-143.21;45.29;70856.81;5110169;28;20216;-79
2023/07/24 08:36:05;;;;;;;21.23;10.65;;;;;;;-143.21;45.11;70846.91;5108360;28;20590;-79
2023/07/24 08:38:32;;;;;;;19.65;10.25;;;;;;;-143.21;44.24;70842.94;5109687;28;20187;-79
2023/07/24 08:41:04;;;;;;;20.13;10.27;;;;;;;-143.21;45.26;70825.09;5109980;28;20200;-79
2023/07/24 08:43:31;;;;;;;17.30;9.80;;;;;;;-143.21;42.61;70821.13;5109533;28;20220;-79
2023/07/24 08:46:00;;;;;;;20.02;9.90;;;;;;;-143.21;41.51;70819.16;5109337;28;20207;-79
2023/07/24 08:48:30;;;;;;;19.27;10.93;;;;;;;-143.21;43.67;70831.03;5108214;28;20292;-79
2023/07/24 08:50:58;;;;;;;18.88;10.95;;;;;;;-143.21;43.72;70825.09;5109248;28;20232;-79
2023/07/24 08:53:27;;;;;;;24.23;10.77;;;;;;;-143.21;43.69;70801.31;5109441;28;20296;-79
2023/07/24 08:55:55;;;;;;;23.80;11.80;;;;;;;-143.21;43.67;70775.53;5109602;28;20204;-79
2023/07/24 08:58:22;;;;;;;13.88;10.15;;;;;;;-143.21;39.81;70773.56;5109719;28;20216;-79
2023/07/24 09:00:51;;;;;;;19.15;11.10;;;;;;;-143.21;41.93;70793.38;5120932;28;20674;-80
2023/07/24 09:03:19;;;;;;;20.83;10.90;;;;;;;-143.21;40.70;70809.25;5130605;28;20219;-80
2023/07/24 09:05:46;;;;;;;18.92;10.50;;;;;;;-143.21;42.69;70787.44;5120119;28;20248;-80
2023/07/24 09:08:13;;;;;;;16.88;10.68;;;;;;;-143.21;42.04;70761.66;5109951;28;20234;-79
2023/07/24 09:10:41;;;;;;;20.67;10.35;;;;;;;-143.21;40.54;70765.63;5119801;28;20207;-80
2023/07/24 09:13:08;;;;;;;20.80;11.50;;;;;;;-143.21;42.06;70733.91;5127825;28;20633;-79
2023/07/24 09:15:42;;;;;;;23.23;10.48;;;;;;;-143.21;40.02;70708.16;5110574;28;20188;-78
2023/07/24 09:18:09;;;;;;;17.52;11.18;;;;;;;-143.21;41.17;70700.22;5110936;28;20236;-79
2023/07/24 09:20:40;;;;;;;18.58;11.00;;;;;;;-143.21;38.28;70706.16;5110550;28;20204;-79
2023/07/24 09:23:08;;;;;;;18.95;11.00;;;;;;;-143.21;40.82;70694.25;5110833;28;20272;-79
2023/07/24 09:25:36;;;;;;;20.15;11.07;;;;;;;-143.21;41.15;70666.50;5111069;28;20240;-79
2023/07/24 09:28:12;;;;;;;19.23;10.63;;;;;;;-143.21;40.41;70646.69;5111164;28;20203;-79
2023/07/24 09:30:40;;;;;;;25.92;11.57;;;;;;;-143.21;40.46;70628.84;5126594;27;20614;-79
2023/07/24 09:33:07;;;;;;;21.15;10.77;;;;;;;-143.21;39.33;70607.06;5127671;27;20287;-79
2023/07/24 09:35:34;;;;;;;20.45;11.77;;;;;;;-143.21;38.87;70589.22;5114663;28;20200;-79
2023/07/24 09:38:06;;;;;;;22.15;11.13;;;;;;;-143.21;39.40;70583.25;5114811;28;20208;-79
2023/07/24 09:40:40;;;;;;;21.35;11.38;;;;;;;-143.21;38.44;70573.34;5114614;27;20193;-79
2023/07/24 09:43:19;;;;;;;21.17;10.95;;;;;;;-143.21;39.33;70555.50;5114098;28;20255;-79
2023/07/24 09:45:47;;;;;;;20.58;11.18;;;;;;;-143.21;37.92;70529.75;5114541;27;20204;-79
2023/07/24 09:48:15;;;;;;;21.63;12.18;;;;;;;-143.21;39.49;70503.97;5113971;28;20659;-79
2023/07/24 09:50:43;;;;;;;21.15;11.60;;;;;;;-143.21;38.70;70470.28;5114209;28;20227;-79
2023/07/24 09:53:15;;;;;;;19.35;10.55;;;;;;;-143.21;35.66;70456.41;5114432;28;20192;-79
2023/07/24 09:55:50;;;;;;;22.25;11.70;;;;;;;-143.21;37.11;70462.34;5121225;27;20286;-79
2023/07/24 09:58:19;;;;;;;21.73;11.13;;;;;;;-143.21;37.69;70462.34;5134576;27;20175;-79
2023/07/24 10:00:47;;;;;;;22.90;10.95;;;;;;;-143.21;36.94;70440.56;5121538;27;20196;-80
2023/07/24 10:03:15;;;;;;;24.98;12.38;;;;;;;-143.21;37.39;70416.78;5113894;28;20613;-79
2023/07/24 10:05:43;;;;;;;21.98;11.85;;;;;;;-143.21;37.09;70392.97;5113709;28;20599;-78
2023/07/24 10:08:11;;;;;;;24.23;11.50;;;;;;;-143.21;37.15;70377.13;5113913;28;20606;-79
2023/07/24 10:10:39;;;;;;;21.52;11.15;;;;;;;-143.21;36.92;70351.38;5113754;28;20702;-79
2023/07/24 10:13:07;;;;;;;21.80;10.70;;;;;;;-143.21;37.48;70317.66;5113470;28;20200;-79
2023/07/24 10:15:38;;;;;;;20.55;10.95;;;;;;;-143.21;36.53;70299.84;5118981;27;20187;-79
2023/07/24 10:18:07;;;;;;;19.33;10.82;;;;;;;-143.21;34.94;70317.66;5134273;27;20604;-79
2023/07/24 10:20:35;;;;;;;22.65;10.88;;;;;;;-143.21;35.92;70321.63;5132239;27;20675;-80
2023/07/24 10:23:02;;;;;;;22.38;11.35;;;;;;;-143.21;36.79;70289.91;5113486;28;21016;-79
2023/07/24 10:25:32;;;;;;;24.88;11.20;;;;;;;-143.21;35.76;70246.31;5113652;28;20605;-79
2023/07/24 10:28:07;;;;;;;20.73;10.13;;;;;;;-143.21;35.54;70238.38;5113312;28;20204;-79
2023/07/24 10:30:36;;;;;;;20.33;11.07;;;;;;;-143.21;35.46;70216.59;5124644;27;20179;-79
2023/07/24 10:33:11;;;;;;;20.50;10.40;;;;;;;-143.21;35.02;70208.66;5134254;27;20219;-79
2023/07/24 10:35:40;;;;;;;19.67;10.70;;;;;;;-143.21;35.31;70198.75;5114343;27;20191;-79
2023/07/24 10:38:07;;;;;;;24.20;10.55;;;;;;;-143.21;35.46;70163.06;5113572;28;20192;-79
2023/07/24 10:40:34;;;;;;;20.40;10.35;;;;;;;-143.21;34.43;70151.19;5113546;28;20211;-79
2023/07/24 10:43:05;;;;;;;33.50;9.98;;;;;;;-143.21;33.62;70153.16;5112876;28;20219;-80
2023/07/24 10:45:44;;;;;;;18.77;9.35;;;;;;;-143.21;34.56;70145.25;5116066;27;20222;-80
2023/07/24 10:48:11;;;;;;;17.27;8.77;;;;;;;-143.21;34.11;70121.47;5134093;27;20191;-80
2023/07/24 10:50:39;;;;;;;23.52;8.68;;;;;;;-143.21;33.01;70131.38;5133403;27;20634;-79
2023/07/24 10:53:06;;;;;;;15.43;7.72;;;;;;;-143.21;33.01;70143.25;5128676;27;20196;-80
2023/07/24 10:55:33;;;;;;;15.25;8.20;;;;;;;-143.21;32.92;70161.09;5112905;28;20192;-81
2023/07/24 10:58:00;;;;;;;15.35;7.57;;;;;;;-143.21;32.92;70147.22;5112923;28;20214;-80
2023/07/24 11:00:27;;;;;;;17.52;8.90;;;;;;;-143.21;32.38;70105.59;5122762;27;20669;-80
2023/07/24 11:02:56;;;;;;;17.13;8.43;;;;;;;-143.21;33.01;70091.72;5126668;27;20242;-80
2023/07/24 11:05:22;;;;;;;17.05;8.80;;;;;;;-143.21;32.09;70089.75;5113398;27;20339;-80
2023/07/24 11:07:49;;;;;;;15.20;7.85;;;;;;;-143.21;32.38;70101.63;5119325;27;20196;-79